4M9

Corning Municipal Airport

Corning, Arkansas, USA
METAR K4M9 210355Z AUTO 05008KT 10SM CLR 11/02 A3028 RMK AO2 PWINO
Observed Flight Rules
Apr-21 @ 03:55 UTC (8 minutes ago) Visual Flight Rules
Wind Visibility Clouds
50° at 8 knots 10 miles
  • Clear skies
Temperatures Readings
Current 11°C / 52°F
Dewpoint 2°C / 36°F
Humidity 54%
Altimeter 30.28" Hg
Pressure 1025 hPa
Elevation 90
METAR K4M9 210355Z AUTO 05008KT 10SM CLR 11/02 A3028 RMK AO2 PWINO
Observed Flight Rules
Apr-21 @ 03:55 UTC
(8 minutes ago)
VFR
Wind Visibility
50° at 8 knots 10 miles
Clouds
  • Clear skies
Temperature Dewpoint
11°C / 52°F 2°C / 36°F
Humidity Altimeter Pressure
54% 30.28" Hg 1025 hPa